Time;durP1;ratioP1;P1;durP2;ratioP2;P2;SDS_P1;SDS_P2;PMS_P1;PMS_P2;Temp;Humidity;BMP_temperature;BMP_pressure;BME280_temperature;BME280_humidity;BME280_pressure;Samples;Min_cycle;Max_cycle;Signal;HPM_P1;HPM_P2
2021/08/25 00:00:32;;;;;;;8.43;3.90;;;12.00;99.90;;;;;;5050245;28;20209;-78
2021/08/25 00:03:00;;;;;;;5.70;3.50;;;11.80;99.90;;;;;;5049959;28;20197;-77
2021/08/25 00:05:27;;;;;;;6.40;3.50;;;11.80;99.90;;;;;;5051382;28;20194;-78
2021/08/25 00:07:54;;;;;;;8.03;3.80;;;11.90;99.90;;;;;;5049855;28;20309;-77
2021/08/25 00:10:21;;;;;;;6.37;3.73;;;11.90;99.90;;;;;;5050794;28;20202;-77
2021/08/25 00:12:48;;;;;;;8.10;3.77;;;12.00;99.90;;;;;;5050624;28;20223;-77
2021/08/25 00:15:14;;;;;;;11.33;3.90;;;11.80;99.90;;;;;;5050911;28;20214;-77
2021/08/25 00:17:43;;;;;;;6.07;3.77;;;11.60;99.90;;;;;;5056186;28;20219;-77
2021/08/25 00:20:11;;;;;;;4.83;3.30;;;11.70;99.90;;;;;;5050071;28;20450;-78
2021/08/25 00:22:38;;;;;;;7.80;4.00;;;11.70;99.90;;;;;;5050406;28;20207;-77
2021/08/25 00:25:05;;;;;;;7.40;3.80;;;11.70;99.90;;;;;;5038644;28;20213;-77
2021/08/25 00:27:32;;;;;;;6.73;3.53;;;11.70;99.90;;;;;;5050540;28;20195;-77
2021/08/25 00:29:59;;;;;;;5.77;3.30;;;11.60;99.90;;;;;;5050373;28;20203;-77
2021/08/25 00:32:26;;;;;;;7.13;3.87;;;11.50;99.90;;;;;;5049902;28;20294;-77
2021/08/25 00:34:54;;;;;;;7.63;3.93;;;11.40;99.90;;;;;;5050061;28;20203;-77
2021/08/25 00:37:21;;;;;;;7.40;3.83;;;11.30;99.90;;;;;;5050226;28;20215;-77
2021/08/25 00:39:48;;;;;;;7.47;3.80;;;11.40;99.90;;;;;;5049993;28;20199;-77
2021/08/25 00:42:15;;;;;;;7.57;3.70;;;11.40;99.90;;;;;;5052306;28;20207;-77
2021/08/25 00:44:42;;;;;;;7.23;3.90;;;11.40;99.90;;;;;;5050697;28;20203;-77
2021/08/25 00:47:09;;;;;;;7.17;3.43;;;11.40;99.90;;;;;;5050463;28;20222;-77
2021/08/25 00:49:37;;;;;;;7.63;3.60;;;11.40;99.90;;;;;;5049886;28;20199;-77
2021/08/25 00:52:07;;;;;;;6.10;3.40;;;11.40;99.90;;;;;;5043672;28;20215;-77
2021/08/25 00:54:34;;;;;;;6.07;3.73;;;11.50;99.90;;;;;;5050720;28;20206;-77
2021/08/25 00:57:01;;;;;;;5.50;3.47;;;11.60;99.90;;;;;;5049841;28;20227;-77
2021/08/25 00:59:28;;;;;;;6.43;3.67;;;11.40;99.90;;;;;;5053799;28;20207;-77
2021/08/25 01:02:04;;;;;;;9.00;3.83;;;11.40;99.90;;;;;;5053993;28;20581;-77
2021/08/25 01:04:37;;;;;;;7.63;3.60;;;11.40;99.90;;;;;;5053360;28;20199;-77
2021/08/25 01:07:06;;;;;;;7.87;3.73;;;11.50;99.90;;;;;;5060480;28;20207;-77
2021/08/25 01:09:36;;;;;;;6.27;3.70;;;11.50;99.90;;;;;;5053230;28;20214;-77
2021/08/25 01:12:04;;;;;;;7.03;3.60;;;11.50;99.90;;;;;;5055251;28;20211;-77
2021/08/25 01:14:31;;;;;;;8.93;3.90;;;11.60;99.90;;;;;;5052473;28;20207;-77
2021/08/25 01:16:58;;;;;;;6.17;3.37;;;11.30;99.90;;;;;;5053423;28;20673;-77
2021/08/25 01:19:29;;;;;;;8.10;3.73;;;11.40;99.90;;;;;;5052799;28;20203;-77
2021/08/25 01:21:56;;;;;;;6.90;3.67;;;11.40;99.90;;;;;;5051854;28;20209;-77
2021/08/25 01:24:24;;;;;;;6.60;3.63;;;11.40;99.90;;;;;;5053377;28;20207;-77
2021/08/25 01:26:54;;;;;;;6.63;3.50;;;11.60;99.90;;;;;;5055133;28;20290;-77
2021/08/25 01:29:28;;;;;;;7.83;3.57;;;11.50;99.90;;;;;;5052194;28;20199;-77
2021/08/25 01:31:56;;;;;;;7.23;3.60;;;11.40;99.90;;;;;;5052208;28;20225;-78
2021/08/25 01:34:23;;;;;;;7.13;3.47;;;11.50;99.90;;;;;;5040027;28;20564;-77
2021/08/25 01:36:51;;;;;;;7.40;3.93;;;11.60;99.90;;;;;;5051613;28;20215;-77
2021/08/25 01:39:19;;;;;;;6.47;3.77;;;11.60;99.90;;;;;;5054208;28;20657;-77
2021/08/25 01:41:47;;;;;;;8.83;4.17;;;11.50;99.90;;;;;;5052370;28;20199;-77
2021/08/25 01:44:14;;;;;;;5.93;3.20;;;11.60;99.90;;;;;;5055544;28;20290;-78
2021/08/25 01:46:43;;;;;;;7.17;3.60;;;11.60;99.90;;;;;;5054050;28;20203;-77
2021/08/25 01:49:12;;;;;;;8.27;4.30;;;11.60;99.90;;;;;;5044613;28;20199;-77
2021/08/25 01:51:40;;;;;;;6.63;3.90;;;11.60;99.90;;;;;;5053122;28;20203;-78
2021/08/25 01:54:09;;;;;;;7.70;3.50;;;11.60;99.90;;;;;;5052598;28;20203;-78
2021/08/25 01:56:36;;;;;;;4.77;3.37;;;11.60;99.90;;;;;;5057665;28;20218;-78
2021/08/25 01:59:03;;;;;;;5.97;3.43;;;11.60;99.90;;;;;;5051711;28;20205;-77
2021/08/25 02:01:30;;;;;;;8.60;3.53;;;11.60;99.90;;;;;;5053853;28;20297;-78
2021/08/25 02:04:01;;;;;;;5.10;3.30;;;11.60;99.90;;;;;;5053097;28;20683;-78
2021/08/25 02:06:29;;;;;;;7.00;3.73;;;11.30;99.90;;;;;;5052419;28;20218;-77
2021/08/25 02:08:56;;;;;;;7.13;3.80;;;11.30;99.90;;;;;;5052115;28;20206;-77
2021/08/25 02:11:23;;;;;;;6.57;3.73;;;11.30;99.90;;;;;;5054992;28;20213;-77
2021/08/25 02:13:50;;;;;;;7.93;4.20;;;11.30;99.90;;;;;;5052366;28;20209;-77
2021/08/25 02:16:17;;;;;;;7.53;3.97;;;11.20;99.90;;;;;;5050526;28;20588;-77
2021/08/25 02:18:43;;;;;;;9.23;4.00;;;11.10;99.90;;;;;;5052391;28;20211;-77
2021/08/25 02:21:12;;;;;;;7.43;3.87;;;11.20;99.90;;;;;;5052196;28;20209;-77
2021/08/25 02:23:39;;;;;;;8.67;4.43;;;11.20;99.90;;;;;;5052304;28;20653;-77
2021/08/25 02:26:06;;;;;;;6.80;3.90;;;11.10;99.90;;;;;;5047442;28;20574;-77
2021/08/25 02:28:33;;;;;;;7.23;3.90;;;11.10;99.90;;;;;;5051355;28;20199;-77
2021/08/25 02:31:00;;;;;;;6.90;3.60;;;11.20;99.90;;;;;;5052830;28;20199;-77
2021/08/25 02:33:27;;;;;;;7.37;4.07;;;11.20;99.90;;;;;;5053633;28;20195;-77
2021/08/25 02:35:54;;;;;;;5.40;3.60;;;11.20;99.90;;;;;;5051382;28;20199;-77
2021/08/25 02:38:22;;;;;;;6.70;4.10;;;11.10;99.90;;;;;;5051132;28;20296;-77
2021/08/25 02:40:49;;;;;;;7.13;4.43;;;11.20;99.90;;;;;;5049522;28;20200;-77
2021/08/25 02:43:16;;;;;;;6.83;4.10;;;11.30;99.90;;;;;;5068113;28;20229;-77
2021/08/25 02:45:43;;;;;;;7.53;4.07;;;11.20;99.90;;;;;;5051922;28;20217;-76
2021/08/25 02:48:09;;;;;;;7.10;4.03;;;11.20;99.90;;;;;;5043633;28;20196;-72
2021/08/25 02:50:36;;;;;;;6.90;3.93;;;11.30;99.90;;;;;;5046533;28;20208;-72
2021/08/25 02:53:04;;;;;;;5.27;3.80;;;11.30;99.90;;;;;;5050296;28;20202;-72
2021/08/25 02:55:32;;;;;;;8.50;4.20;;;11.30;99.90;;;;;;5044411;28;20208;-72
2021/08/25 02:57:59;;;;;;;7.67;4.00;;;11.10;99.90;;;;;;5050632;28;20326;-72
2021/08/25 03:00:26;;;;;;;9.50;4.40;;;11.10;99.90;;;;;;5051581;28;20572;-72
2021/08/25 03:02:53;;;;;;;9.13;4.17;;;11.00;99.90;;;;;;5053729;28;20199;-72
2021/08/25 03:05:20;;;;;;;7.57;4.30;;;11.00;99.90;;;;;;5057085;28;20217;-73
2021/08/25 03:07:47;;;;;;;7.17;4.27;;;11.10;99.90;;;;;;5049398;28;20206;-72
2021/08/25 03:10:14;;;;;;;8.13;4.30;;;11.10;99.90;;;;;;5041911;28;20207;-73
2021/08/25 03:12:42;;;;;;;6.27;3.83;;;11.00;99.90;;;;;;5048755;28;20546;-72
2021/08/25 03:15:10;;;;;;;8.77;3.83;;;10.90;99.90;;;;;;5055626;28;20203;-72
2021/08/25 03:17:37;;;;;;;6.50;3.47;;;10.80;99.90;;;;;;5051357;28;20241;-72
2021/08/25 03:20:05;;;;;;;7.50;3.90;;;10.90;99.90;;;;;;5050525;28;20599;-72
2021/08/25 03:22:32;;;;;;;9.43;3.70;;;10.90;99.90;;;;;;5056308;28;20202;-72
2021/08/25 03:24:59;;;;;;;8.93;3.90;;;10.80;99.90;;;;;;5054583;28;20202;-72
2021/08/25 03:27:25;;;;;;;7.43;3.30;;;10.90;99.90;;;;;;5065852;28;20194;-71
2021/08/25 03:29:54;;;;;;;7.73;3.80;;;10.90;99.90;;;;;;5051141;28;20199;-72
2021/08/25 03:32:20;;;;;;;6.80;3.63;;;10.90;99.90;;;;;;5043048;28;20210;-72
2021/08/25 03:34:47;;;;;;;6.27;3.50;;;10.90;99.90;;;;;;5041830;28;20204;-72
2021/08/25 03:37:14;;;;;;;7.23;3.87;;;10.80;99.90;;;;;;5047864;28;20219;-72
2021/08/25 03:39:41;;;;;;;6.20;3.63;;;10.90;99.90;;;;;;5058472;28;20560;-72
2021/08/25 03:42:09;;;;;;;7.53;3.67;;;10.70;99.90;;;;;;5055474;28;20202;-72
2021/08/25 03:44:36;;;;;;;8.00;4.13;;;10.60;99.90;;;;;;5048924;28;20203;-72
2021/08/25 03:47:05;;;;;;;9.20;4.30;;;10.60;99.90;;;;;;5048917;28;20205;-72
2021/08/25 03:49:32;;;;;;;8.00;3.93;;;10.60;99.90;;;;;;5051289;28;20213;-72
2021/08/25 03:51:59;;;;;;;7.83;3.50;;;10.60;99.90;;;;;;5056764;28;20592;-72
2021/08/25 03:54:27;;;;;;;8.80;3.97;;;10.60;99.90;;;;;;5060383;28;20526;-72
2021/08/25 03:56:54;;;;;;;7.80;3.90;;;10.50;99.90;;;;;;5051053;28;20240;-72
2021/08/25 03:59:21;;;;;;;11.37;6.87;;;10.50;99.90;;;;;;5050518;28;20503;-72
2021/08/25 04:01:49;;;;;;;10.37;5.70;;;10.60;99.90;;;;;;5044889;28;20206;-72
2021/08/25 04:04:18;;;;;;;9.43;4.93;;;10.50;99.90;;;;;;5049010;28;20257;-72
2021/08/25 04:06:45;;;;;;;6.53;3.63;;;10.50;99.90;;;;;;5315684;23;20228;-73
2021/08/25 04:09:12;;;;;;;7.50;4.10;;;10.50;99.90;;;;;;5003755;28;20212;-73
2021/08/25 04:11:39;;;;;;;9.03;4.37;;;10.50;99.90;;;;;;5010251;28;20211;-74
2021/08/25 04:14:06;;;;;;;6.93;3.70;;;10.40;99.90;;;;;;5009082;28;20204;-73
2021/08/25 04:16:33;;;;;;;5.93;3.37;;;10.40;99.90;;;;;;5008578;28;20208;-74
2021/08/25 04:19:00;;;;;;;6.77;4.07;;;10.40;99.90;;;;;;5009941;28;20207;-74
2021/08/25 04:21:28;;;;;;;8.20;4.40;;;10.40;99.90;;;;;;5010680;28;20746;-73
2021/08/25 04:23:55;;;;;;;6.63;3.73;;;10.40;99.90;;;;;;5010647;28;20551;-73
2021/08/25 04:26:22;;;;;;;8.10;4.00;;;10.30;99.90;;;;;;5010224;28;20205;-73
2021/08/25 04:28:49;;;;;;;10.73;4.80;;;10.20;99.90;;;;;;5005221;28;20654;-74
2021/08/25 04:31:16;;;;;;;7.23;4.37;;;10.10;99.90;;;;;;5007046;28;20204;-74
2021/08/25 04:33:42;;;;;;;7.33;3.50;;;10.20;99.90;;;;;;5009078;28;20211;-73
2021/08/25 04:36:09;;;;;;;9.20;4.40;;;10.30;99.90;;;;;;5012878;28;20222;-73
2021/08/25 04:38:37;;;;;;;6.70;3.83;;;10.40;99.90;;;;;;5013930;28;20247;-73
2021/08/25 04:41:04;;;;;;;8.47;4.27;;;10.50;99.90;;;;;;5006028;28;20207;-73
2021/08/25 04:43:31;;;;;;;7.00;3.77;;;10.60;99.90;;;;;;5013727;28;20204;-73
2021/08/25 04:45:58;;;;;;;8.37;4.63;;;10.60;99.90;;;;;;5019017;28;20200;-73
2021/08/25 04:48:25;;;;;;;6.80;4.10;;;10.70;99.90;;;;;;5017272;28;20196;-73
2021/08/25 04:50:52;;;;;;;7.33;3.63;;;10.80;99.90;;;;;;5013769;28;20208;-73
2021/08/25 04:53:19;;;;;;;9.70;4.00;;;10.80;99.90;;;;;;5019597;28;20204;-73
2021/08/25 04:55:47;;;;;;;7.10;3.60;;;10.70;99.90;;;;;;5009042;28;20212;-73
2021/08/25 04:58:14;;;;;;;7.77;3.80;;;10.60;99.90;;;;;;5008509;28;20234;-73
2021/08/25 05:00:41;;;;;;;5.93;3.70;;;10.70;99.90;;;;;;5013768;28;20208;-73
2021/08/25 05:03:08;;;;;;;9.37;5.07;;;10.70;99.90;;;;;;5008684;28;20291;-73
2021/08/25 05:05:34;;;;;;;5.97;4.00;;;10.60;99.90;;;;;;5008124;28;20200;-73
2021/08/25 05:08:01;;;;;;;16.57;8.67;;;10.70;99.90;;;;;;5011607;28;20307;-73
2021/08/25 05:10:28;;;;;;;12.07;6.77;;;10.80;99.90;;;;;;5011251;28;20211;-74
2021/08/25 05:12:56;;;;;;;11.77;4.37;;;10.70;99.90;;;;;;5014919;28;20212;-73
2021/08/25 05:15:23;;;;;;;6.23;3.60;;;10.80;99.90;;;;;;5021772;28;20203;-74
2021/08/25 05:17:51;;;;;;;8.13;4.07;;;10.90;99.90;;;;;;5013004;28;20231;-73
2021/08/25 05:20:18;;;;;;;6.87;4.07;;;10.90;99.90;;;;;;5023226;28;20196;-73
2021/08/25 05:22:45;;;;;;;6.60;3.77;;;11.00;99.90;;;;;;5012577;28;20207;-73
2021/08/25 05:25:12;;;;;;;7.30;4.47;;;11.00;99.90;;;;;;5007876;28;20208;-74
2021/08/25 05:27:39;;;;;;;6.47;3.57;;;11.10;99.90;;;;;;5012675;28;20196;-73
2021/08/25 05:30:08;;;;;;;7.97;4.10;;;11.20;99.90;;;;;;5010334;28;20220;-72
2021/08/25 05:32:35;;;;;;;7.73;4.30;;;11.30;99.90;;;;;;5008893;28;20718;-74
2021/08/25 05:35:02;;;;;;;8.37;4.00;;;11.30;99.90;;;;;;5010705;28;20204;-74
2021/08/25 05:37:29;;;;;;;7.27;3.73;;;11.30;99.90;;;;;;5007265;28;20224;-73
2021/08/25 05:39:56;;;;;;;8.40;3.97;;;11.40;99.90;;;;;;5009854;28;20201;-73
2021/08/25 05:42:23;;;;;;;8.07;4.33;;;11.50;99.90;;;;;;5013209;28;20207;-73
2021/08/25 05:44:49;;;;;;;7.43;4.13;;;11.50;99.90;;;;;;5011564;28;20204;-74
2021/08/25 05:47:18;;;;;;;8.23;4.17;;;11.50;99.90;;;;;;5008452;28;20452;-73
2021/08/25 05:49:44;;;;;;;10.17;4.13;;;11.40;99.90;;;;;;5007785;28;20228;-74
2021/08/25 05:52:11;;;;;;;7.80;4.33;;;11.50;99.90;;;;;;5012466;28;20204;-74
2021/08/25 05:54:38;;;;;;;6.80;3.70;;;11.50;99.90;;;;;;5009883;28;20204;-73
2021/08/25 05:57:05;;;;;;;10.70;4.13;;;11.70;99.90;;;;;;5009481;28;20585;-73
2021/08/25 05:59:31;;;;;;;8.80;4.27;;;11.70;99.90;;;;;;5003490;28;20204;-73
2021/08/25 06:01:58;;;;;;;6.83;4.17;;;11.70;99.90;;;;;;5011604;28;20650;-74
2021/08/25 06:04:26;;;;;;;9.70;5.17;;;11.90;99.90;;;;;;5012796;28;20204;-74
2021/08/25 06:06:53;;;;;;;8.27;4.20;;;11.90;99.90;;;;;;5012176;28;20208;-74
2021/08/25 06:09:20;;;;;;;10.33;4.10;;;12.10;99.90;;;;;;5012162;28;20538;-74
2021/08/25 06:11:47;;;;;;;7.90;4.23;;;12.00;99.90;;;;;;5008778;28;20212;-73
2021/08/25 06:14:14;;;;;;;7.50;4.13;;;12.20;99.90;;;;;;5010614;28;20207;-73
2021/08/25 06:16:42;;;;;;;11.63;4.10;;;12.30;99.90;;;;;;5012294;28;20216;-73
2021/08/25 06:19:09;;;;;;;7.90;4.07;;;12.40;99.90;;;;;;5011172;28;20243;-74
2021/08/25 06:21:38;;;;;;;11.67;4.30;;;12.40;99.90;;;;;;5011848;28;20211;-74
2021/08/25 06:24:06;;;;;;;7.90;4.63;;;12.40;99.90;;;;;;5015216;28;20212;-73
2021/08/25 06:26:33;;;;;;;8.00;4.00;;;12.50;99.90;;;;;;5022138;28;20207;-74
2021/08/25 06:28:59;;;;;;;10.20;4.60;;;12.70;99.90;;;;;;5011875;28;20210;-74
2021/08/25 06:31:26;;;;;;;10.23;4.73;;;12.70;99.90;;;;;;5010497;28;20710;-73
2021/08/25 06:33:53;;;;;;;10.93;5.27;;;12.80;99.90;;;;;;5010573;28;20202;-74
2021/08/25 06:36:20;;;;;;;9.10;4.43;;;12.80;99.90;;;;;;5011539;28;20200;-73
2021/08/25 06:38:48;;;;;;;8.60;4.67;;;13.00;99.90;;;;;;5025261;28;20223;-73
2021/08/25 06:41:15;;;;;;;10.20;4.80;;;13.10;99.90;;;;;;5010829;28;20212;-73
2021/08/25 06:43:42;;;;;;;7.40;4.70;;;13.10;99.90;;;;;;5011819;28;20204;-72
2021/08/25 06:46:09;;;;;;;8.90;4.40;;;13.20;99.90;;;;;;5009343;28;20204;-73
2021/08/25 06:48:35;;;;;;;8.73;4.67;;;13.20;99.90;;;;;;5008681;28;20579;-73
2021/08/25 06:51:02;;;;;;;9.57;4.40;;;13.30;99.90;;;;;;5011536;28;20204;-74
2021/08/25 06:53:31;;;;;;;9.03;4.43;;;13.40;99.90;;;;;;5011696;28;20204;-74
2021/08/25 06:55:59;;;;;;;7.47;4.13;;;13.50;99.90;;;;;;5011383;28;20209;-74
2021/08/25 06:58:27;;;;;;;9.90;4.57;;;13.50;99.90;;;;;;4999215;28;20686;-73
2021/08/25 07:00:54;;;;;;;8.27;4.73;;;13.60;99.90;;;;;;5003048;28;20205;-73
2021/08/25 07:03:21;;;;;;;7.63;4.43;;;13.60;99.90;;;;;;4998360;28;20212;-74
2021/08/25 07:05:48;;;;;;;7.37;4.70;;;13.70;99.90;;;;;;4995349;28;20695;-74
2021/08/25 07:08:15;;;;;;;9.67;4.80;;;13.90;99.90;;;;;;4992822;28;20219;-73
2021/08/25 07:10:42;;;;;;;10.50;4.67;;;13.90;99.90;;;;;;5003263;28;20385;-73
2021/08/25 07:13:10;;;;;;;8.80;4.47;;;13.90;99.90;;;;;;4995711;28;20212;-73
2021/08/25 07:15:38;;;;;;;14.33;5.07;;;14.10;99.90;;;;;;4993631;28;20223;-74
2021/08/25 07:18:05;;;;;;;9.50;4.87;;;14.20;99.90;;;;;;4998796;28;20226;-73
2021/08/25 07:20:32;;;;;;;9.67;4.43;;;14.40;99.90;;;;;;5004446;28;20215;-74
2021/08/25 07:22:59;;;;;;;9.43;4.50;;;14.40;99.90;;;;;;5006277;28;20212;-74
2021/08/25 07:25:26;;;;;;;9.03;4.90;;;14.40;99.90;;;;;;5002341;28;20212;-73
2021/08/25 07:27:53;;;;;;;8.67;4.50;;;14.40;99.90;;;;;;5000885;28;20204;-73
2021/08/25 07:30:21;;;;;;;8.53;4.40;;;14.70;99.90;;;;;;5009047;28;20224;-74
2021/08/25 07:32:48;;;;;;;8.03;4.53;;;14.80;99.90;;;;;;5005719;28;20204;-74
2021/08/25 07:35:15;;;;;;;6.13;4.33;;;14.80;99.90;;;;;;5006894;28;20731;-74
2021/08/25 07:37:42;;;;;;;9.53;4.30;;;14.90;99.90;;;;;;5019414;28;20216;-74
2021/08/25 07:40:10;;;;;;;8.20;4.00;;;15.10;99.90;;;;;;5009672;28;20591;-74
2021/08/25 07:42:37;;;;;;;9.57;4.47;;;15.10;99.90;;;;;;5003004;28;20521;-74
2021/08/25 07:45:04;;;;;;;6.73;4.10;;;15.10;99.90;;;;;;5000412;28;20218;-74
2021/08/25 07:47:33;;;;;;;7.20;4.50;;;14.90;99.90;;;;;;5004656;28;20478;-75
2021/08/25 07:50:00;;;;;;;7.70;3.90;;;14.80;99.90;;;;;;5004917;28;20200;-75
2021/08/25 07:52:27;;;;;;;10.67;4.57;;;14.90;99.90;;;;;;5005461;28;20201;-75
2021/08/25 07:54:54;;;;;;;9.13;4.53;;;15.10;99.90;;;;;;5006387;28;20295;-75
2021/08/25 07:57:21;;;;;;;10.07;4.40;;;15.30;99.90;;;;;;5006451;28;20208;-75
2021/08/25 07:59:47;;;;;;;8.20;4.53;;;15.40;99.90;;;;;;5007680;28;20222;-75
2021/08/25 08:02:14;;;;;;;7.33;4.20;;;15.40;99.90;;;;;;5005089;28;20204;-75
2021/08/25 08:04:43;;;;;;;8.60;4.70;;;15.50;99.90;;;;;;5007304;28;20208;-75
2021/08/25 08:07:09;;;;;;;8.33;4.40;;;15.50;99.90;;;;;;5006835;28;20586;-75
2021/08/25 08:09:36;;;;;;;8.50;4.60;;;15.50;99.90;;;;;;5009935;28;20212;-75
2021/08/25 08:12:04;;;;;;;6.83;4.30;;;15.70;99.90;;;;;;5011313;28;20212;-76
2021/08/25 08:14:31;;;;;;;7.90;4.87;;;15.70;99.90;;;;;;5011269;28;20219;-75
2021/08/25 08:17:00;;;;;;;6.00;4.15;;;15.90;99.90;;;;;;5009774;28;20200;-75
2021/08/25 08:19:30;;;;;;;7.73;4.27;;;15.90;99.90;;;;;;5010519;28;20250;-75
2021/08/25 08:21:59;;;;;;;6.50;3.95;;;16.10;99.90;;;;;;5010959;28;20547;-75
2021/08/25 08:24:26;;;;;;;8.38;4.68;;;16.20;99.90;;;;;;5010059;28;20584;-75
2021/08/25 08:26:53;;;;;;;7.65;4.35;;;16.30;99.90;;;;;;5010239;28;20208;-75
2021/08/25 08:29:20;;;;;;;8.32;3.92;;;16.50;99.90;;;;;;5010891;28;20593;-74
2021/08/25 08:31:47;;;;;;;6.78;3.88;;;16.70;99.90;;;;;;5010740;28;20209;-74
2021/08/25 08:34:14;;;;;;;8.38;3.95;;;16.90;99.90;;;;;;5008300;28;20215;-75
2021/08/25 08:36:42;;;;;;;8.60;4.32;;;16.90;99.90;;;;;;5009723;28;20205;-74
2021/08/25 08:39:10;;;;;;;7.82;4.03;;;17.10;99.90;;;;;;5008984;28;20726;-74
2021/08/25 08:41:40;;;;;;;7.55;4.53;;;17.20;99.90;;;;;;5010857;28;20219;-75
2021/08/25 08:44:11;;;;;;;7.03;3.80;;;17.30;99.90;;;;;;5010559;28;20211;-75
2021/08/25 08:46:40;;;;;;;8.38;4.22;;;17.20;99.90;;;;;;5009086;28;20216;-75
2021/08/25 08:49:09;;;;;;;6.45;4.03;;;17.50;99.90;;;;;;5009298;28;20216;-75
2021/08/25 08:51:38;;;;;;;8.50;4.32;;;17.60;99.90;;;;;;5010685;28;20215;-75
2021/08/25 08:54:05;;;;;;;7.68;4.55;;;17.70;99.90;;;;;;5010154;28;20678;-74
2021/08/25 08:56:34;;;;;;;7.72;4.28;;;17.80;99.90;;;;;;5008390;28;20313;-75
2021/08/25 08:59:01;;;;;;;8.23;4.38;;;18.00;99.90;;;;;;5009581;28;20235;-75
2021/08/25 09:01:29;;;;;;;8.85;4.00;;;18.30;99.90;;;;;;5008692;28;20216;-75
2021/08/25 09:03:56;;;;;;;10.00;4.47;;;18.30;99.90;;;;;;5009907;28;20212;-75
2021/08/25 09:06:42;;;;;;;7.15;4.03;;;18.30;99.90;;;;;;5010117;28;20212;-75
2021/08/25 09:09:09;;;;;;;9.48;3.80;;;18.50;99.90;;;;;;5009241;28;20212;-75
2021/08/25 09:11:50;;;;;;;8.77;4.25;;;18.60;99.90;;;;;;5010067;28;20208;-75
2021/08/25 09:14:17;;;;;;;9.30;3.60;;;18.50;99.90;;;;;;5010231;28;20208;-74
2021/08/25 09:16:45;;;;;;;6.93;3.95;;;18.60;99.90;;;;;;5019503;28;20211;-74
2021/08/25 09:19:14;;;;;;;6.50;3.95;;;18.80;99.90;;;;;;5008739;28;20220;-74
2021/08/25 09:21:43;;;;;;;7.07;3.88;;;19.10;99.90;;;;;;5010213;28;20216;-75
2021/08/25 09:24:11;;;;;;;6.20;3.70;;;19.40;99.90;;;;;;5009780;28;20622;-75
2021/08/25 09:26:59;;;;;;;5.78;3.60;;;19.50;99.90;;;;;;5009543;28;20204;-75
2021/08/25 09:29:28;;;;;;;7.78;3.70;;;19.60;99.90;;;;;;5009168;28;20748;-75
2021/08/25 09:31:54;;;;;;;5.63;3.30;;;20.10;99.90;;;;;;5008084;28;20219;-75
2021/08/25 09:34:25;;;;;;;6.18;3.22;;;20.40;99.90;;;;;;5009225;28;20779;-75
2021/08/25 09:37:05;;;;;;;6.18;2.88;;;20.90;99.90;;;;;;5008791;28;20266;-75
2021/08/25 09:39:32;;;;;;;6.35;3.28;;;21.10;99.90;;;;;;5008748;28;20223;-75
2021/08/25 09:42:00;;;;;;;5.72;3.10;;;21.20;99.90;;;;;;5008864;28;20215;-75
2021/08/25 09:44:28;;;;;;;5.72;2.90;;;21.10;99.90;;;;;;5013407;28;20212;-75
2021/08/25 09:46:55;;;;;;;5.72;3.17;;;21.10;99.90;;;;;;5004334;28;20582;-75
2021/08/25 09:49:21;;;;;;;5.68;3.00;;;21.20;99.90;;;;;;5005749;28;20203;-75
2021/08/25 09:51:49;;;;;;;4.10;2.75;;;21.00;99.90;;;;;;5007261;28;20208;-75
2021/08/25 09:54:18;;;;;;;5.43;3.50;;;21.60;99.90;;;;;;5008503;28;20898;-75
2021/08/25 09:56:45;;;;;;;5.53;3.28;;;21.10;99.90;;;;;;5007777;28;20204;-75
2021/08/25 09:59:14;;;;;;;6.00;3.67;;;21.40;99.90;;;;;;4997964;28;20220;-74
2021/08/25 10:01:45;;;;;;;8.18;3.83;;;21.80;99.90;;;;;;5008616;28;20578;-75
2021/08/25 10:04:14;;;;;;;6.45;3.88;;;21.90;99.90;;;;;;5009132;28;20296;-75
2021/08/25 10:06:42;;;;;;;4.07;3.17;;;22.20;99.90;;;;;;5045888;22;20422;-77
2021/08/25 10:09:10;;;;;;;4.78;3.13;;;22.30;99.90;;;;;;5049190;28;20207;-77
2021/08/25 10:11:40;;;;;;;5.97;3.70;;;22.40;99.90;;;;;;5049091;28;20213;-77
2021/08/25 10:14:08;;;;;;;6.32;2.75;;;22.80;99.90;;;;;;5047100;28;20203;-77
2021/08/25 10:16:42;;;;;;;4.97;3.25;;;23.30;99.90;;;;;;5049167;28;20203;-77
2021/08/25 10:19:37;;;;;;;5.55;3.33;;;23.20;99.90;;;;;;5038872;28;20731;-77
2021/08/25 10:22:24;;;;;;;4.13;3.17;;;23.40;99.90;;;;;;5043552;28;20210;-77
2021/08/25 10:25:04;;;;;;;7.85;3.58;;;23.30;99.90;;;;;;5048517;28;20242;-77
2021/08/25 10:27:33;;;;;;;4.15;2.63;;;22.90;99.90;;;;;;5048411;28;20307;-77
2021/08/25 10:30:24;;;;;;;5.45;3.35;;;23.20;99.90;;;;;;5047668;28;20207;-78
2021/08/25 10:33:16;;;;;;;4.50;3.17;;;23.70;99.90;;;;;;5016326;28;20235;-78
2021/08/25 10:35:44;;;;;;;4.90;3.13;;;23.10;99.90;;;;;;5018097;28;20297;-78
2021/08/25 10:38:26;;;;;;;4.97;3.30;;;23.20;99.90;;;;;;5037537;28;20549;-77
2021/08/25 10:41:00;;;;;;;5.45;3.20;;;23.40;99.90;;;;;;5045740;28;20225;-77
2021/08/25 10:43:38;;;;;;;7.70;3.63;;;23.80;99.90;;;;;;5046161;28;20264;-78
2021/08/25 10:46:06;;;;;;;6.53;3.55;;;23.50;99.90;;;;;;5041085;28;20635;-77
2021/08/25 10:48:49;;;;;;;6.93;3.70;;;23.60;99.90;;;;;;5036934;28;20316;-77
2021/08/25 10:51:39;;;;;;;4.53;3.30;;;23.40;99.90;;;;;;5038218;28;20217;-77
2021/08/25 10:54:09;;;;;;;5.60;3.47;;;23.40;99.90;;;;;;5042504;28;20688;-78
2021/08/25 10:56:42;;;;;;;5.30;3.60;;;23.30;99.90;;;;;;5036236;28;20203;-77
2021/08/25 10:59:11;;;;;;;7.05;3.90;;;23.40;99.90;;;;;;5032719;28;20522;-78
2021/08/25 11:01:41;;;;;;;5.45;3.50;;;23.50;99.90;;;;;;5047001;28;20214;-77
2021/08/25 11:04:13;;;;;;;7.30;4.00;;;23.60;99.90;;;;;;5049121;28;20238;-77
2021/08/25 11:06:42;;;;;;;6.07;3.65;;;23.50;99.90;;;;;;5050560;28;20581;-77
2021/08/25 11:09:28;;;;;;;4.78;3.30;;;23.60;99.90;;;;;;5048135;28;20665;-78
2021/08/25 11:12:01;;;;;;;7.50;4.15;;;24.00;99.90;;;;;;5047483;28;20294;-77
2021/08/25 11:14:33;;;;;;;7.10;4.20;;;23.40;99.90;;;;;;5048193;28;20210;-77
2021/08/25 11:17:18;;;;;;;7.32;3.67;;;23.40;99.90;;;;;;5047445;28;20254;-77
2021/08/25 11:19:48;;;;;;;6.32;3.85;;;23.70;99.90;;;;;;5047481;28;20257;-77
2021/08/25 11:22:19;;;;;;;6.35;3.83;;;23.90;99.90;;;;;;5047087;28;20203;-77
2021/08/25 11:24:48;;;;;;;6.43;4.32;;;23.20;99.90;;;;;;5048393;28;20698;-77
2021/08/25 11:27:35;;;;;;;6.95;4.40;;;23.30;99.90;;;;;;5037309;28;20207;-77
2021/08/25 11:30:14;;;;;;;6.57;3.97;;;23.30;99.90;;;;;;5048028;28;20203;-77
2021/08/25 11:32:49;;;;;;;6.00;4.05;;;23.50;99.90;;;;;;5047495;28;20675;-77
2021/08/25 11:35:24;;;;;;;5.40;3.75;;;23.50;99.90;;;;;;5048286;28;20844;-78
2021/08/25 11:37:52;;;;;;;6.28;3.70;;;23.60;99.90;;;;;;5047145;28;20199;-77
2021/08/25 11:40:22;;;;;;;6.95;4.50;;;23.30;99.90;;;;;;5046350;28;20318;-77
2021/08/25 11:42:49;;;;;;;8.48;3.85;;;23.90;99.90;;;;;;5046170;28;20727;-78
2021/08/25 11:45:19;;;;;;;6.90;4.55;;;24.20;99.90;;;;;;5047932;28;20199;-78
2021/08/25 11:47:47;;;;;;;5.65;4.07;;;24.10;99.90;;;;;;5045923;28;20280;-77
2021/08/25 11:50:15;;;;;;;6.05;4.10;;;24.20;99.90;;;;;;5046546;28;20250;-77
2021/08/25 11:52:44;;;;;;;8.10;4.45;;;24.50;99.90;;;;;;5046142;28;20248;-77
2021/08/25 11:55:12;;;;;;;7.15;3.72;;;24.40;99.90;;;;;;5046873;28;20206;-78
2021/08/25 11:57:41;;;;;;;8.07;4.20;;;23.70;99.90;;;;;;5051071;28;20604;-78
2021/08/25 12:00:09;;;;;;;6.60;4.32;;;23.30;99.90;;;;;;5046303;28;20218;-77
2021/08/25 12:02:54;;;;;;;6.30;3.60;;;22.80;99.90;;;;;;5047723;28;20211;-77
2021/08/25 12:05:23;;;;;;;5.25;3.60;;;23.10;99.90;;;;;;5045613;28;20199;-74
2021/08/25 12:08:11;;;;;;;4.88;3.28;;;23.20;99.90;;;;;;5045893;28;20912;-74
2021/08/25 12:10:39;;;;;;;5.60;3.60;;;23.70;99.90;;;;;;5043772;28;20658;-74
2021/08/25 12:13:07;;;;;;;7.50;4.13;;;24.30;99.90;;;;;;5049942;28;20657;-74
2021/08/25 12:15:48;;;;;;;7.65;4.22;;;24.30;99.90;;;;;;5047731;28;20578;-74
2021/08/25 12:18:15;;;;;;;7.88;4.15;;;24.40;99.90;;;;;;5046675;28;20211;-74
2021/08/25 12:20:45;;;;;;;6.55;4.13;;;24.10;99.90;;;;;;5043975;28;20226;-74
2021/08/25 12:23:16;;;;;;;5.10;3.33;;;24.60;99.90;;;;;;5051760;28;20214;-74
2021/08/25 12:25:44;;;;;;;5.00;3.38;;;24.40;99.90;;;;;;5046658;28;20665;-74
2021/08/25 12:28:12;;;;;;;8.02;4.68;;;24.20;99.90;;;;;;5047103;28;20199;-74
2021/08/25 12:30:40;;;;;;;8.00;4.95;;;24.10;99.90;;;;;;5051221;28;20206;-74
2021/08/25 12:33:10;;;;;;;8.82;4.25;;;24.20;99.90;;;;;;5043272;28;20260;-73
2021/08/25 12:35:38;;;;;;;7.30;4.25;;;24.40;99.90;;;;;;5044969;28;20586;-74
2021/08/25 12:38:07;;;;;;;5.70;3.88;;;24.60;99.90;;;;;;5050105;28;20772;-74
2021/08/25 12:40:35;;;;;;;5.32;3.85;;;24.50;99.90;;;;;;5045777;28;20234;-74
2021/08/25 12:43:02;;;;;;;10.70;5.13;;;24.80;99.90;;;;;;5046662;28;20238;-74
2021/08/25 12:45:29;;;;;;;8.25;5.13;;;24.30;99.90;;;;;;5052451;28;20661;-73
2021/08/25 12:47:57;;;;;;;6.25;4.30;;;24.20;99.90;;;;;;5045945;28;20214;-74
2021/08/25 12:50:25;;;;;;;6.57;4.05;;;24.40;99.90;;;;;;5045466;28;20199;-74
2021/08/25 12:52:52;;;;;;;5.47;4.22;;;24.30;99.90;;;;;;5041967;28;20237;-74